Weather observations for the past three days for
Beaver County Airport
Imperial (Metric)
Date Time (edt) Wind (mph) Vis. (mi.) Weather Sky Cond. Temperature (ºF) Relative Humidity Wind Chill (°F) Heat Index (°F) Pressure Precipitation (in)
Air Dwpt 6 hour altimeter (in) sea level (mb) 1 hr 3 hr 6 hr
Max. Min.
06 18:35 Calm 10.00 Partly Cloudy SCT070 77.5 53.1 43% 79 30.06 0.0
06 18:15 E 3 10.00 Partly Cloudy SCT055 SCT070 77.4 52.9 43% 79 30.05 0.0
06 17:55 E 3 10.00 Partly Cloudy SCT055 SCT070 79.9 53.4 40% 80 30.05 0.0
06 17:35 Calm 10.00 Partly Cloudy SCT055 79.7 52.5 39% 80 30.05 0.0
06 17:15 E 3 10.00 Fair CLR 79.9 50.7 36% 80 30.05 0.0
06 16:55 NE 6 10.00 Partly Cloudy SCT065 78.4 54.7 44% 79 30.04 0.0
06 16:35 Calm 10.00 Partly Cloudy SCT065 78.6 53.8 42% 79 30.04 0.0
06 16:15 SE 6 10.00 Partly Cloudy SCT050 SCT065 79 54 42% 79 30.04 0.0
06 15:55 E 7 10.00 Mostly Cloudy BKN050 BKN065 78.6 53.8 42% 79 30.05 0.0
06 15:35 Calm 10.00 Partly Cloudy SCT065 79 53.8 42% 79 30.05 0.0
06 15:15 NE 6 10.00 Overcast SCT049 OVC065 77.2 54.7 46% 79 30.06 0.0
06 14:55 E 6 10.00 Mostly Cloudy SCT049 SCT055 BKN065 80.6 55 41% 80 30.06 0.0
06 14:35 NE 5 10.00 Mostly Cloudy SCT046 SCT055 BKN065 79.9 55.4 43% 80 30.06 0.0
06 14:15 E 6 10.00 Mostly Cloudy SCT046 SCT055 BKN065 79.7 54.3 42% 80 30.06 0.0
06 13:55 E 5 10.00 Partly Cloudy SCT060 79 55.8 45% 80 30.07 0.0
06 13:35 E 3 10.00 Partly Cloudy SCT045 SCT060 78.8 55.8 45% 80 30.07 0.0
06 13:15 Calm 10.00 Partly Cloudy SCT040 SCT048 78.3 56.7 48% 79 30.07 0.0
06 12:55 E 5 10.00 Partly Cloudy SCT038 SCT048 76.3 56.1 50% 78 30.08 0.0
06 12:35 NE 6 10.00 Mostly Cloudy SCT040 BKN050 76.3 57.4 52% 78 30.08 0.0
06 12:15 NE 7 10.00 Partly Cloudy SCT033 SCT043 76.6 57 51% 78 30.08 0.0
06 11:55 NE 7 10.00 Partly Cloudy SCT033 76.6 58.5 54% 78 30.08 0.0
06 11:35 NE 3 10.00 Fair CLR 75.4 58.6 56% 78 30.08 0.0
06 11:15 NE 7 10.00 Fair CLR 74.7 59.7 60% 30.08 0.0
06 10:55 E 3 10.00 Fair CLR 73.6 59.4 61% 30.08 0.0
06 10:35 E 3 10.00 Fair CLR 72 59 64% 30.07 0.0
06 10:15 SE 3 10.00 Fair CLR 71.1 60.3 69% 30.07 0.0
06 09:55 Calm 10.00 Fair CLR 69.8 59.5 70% 30.06 0.0
06 09:35 E 3 10.00 Fair CLR 68.7 59.2 72% 30.06 0.0
06 09:15 NE 3 10.00 Fair CLR 67.1 59.2 76% 30.06 0.0
06 08:55 NE 3 10.00 Fair CLR 65.3 58.6 79% 30.06 0.0
06 08:35 NE 5 10.00 Fair CLR 63.5 58.1 83% 30.06 0.0
06 08:15 NE 6 10.00 Partly Cloudy SCT048 61.7 57.4 86% 30.04 0.0
06 07:55 NE 5 10.00 Partly Cloudy SCT048 60.1 57 90% 30.04 0.0
06 07:35 NE 5 10.00 Fair CLR 59 56.1 90% 30.03 0.0
06 07:15 NE 3 10.00 Fair CLR 58.5 55.6 90% 30.03 0.0
06 06:55 NE 3 10.00 Fair CLR 58.5 55.6 90% 30.02 0.0
06 06:35 NE 3 10.00 Fair CLR 58.5 55.6 90% 30.02 0.0
06 06:15 NE 3 10.00 Fair CLR 58.6 55.8 90% 30.02 0.0
06 05:55 NE 3 10.00 Fair CLR 59 55.9 90% 30.02 0.0
06 05:35 NE 3 10.00 Fair CLR 59 55.9 90% 30.01 0.0
06 05:15 NE 5 10.00 Fair CLR 59 55.9 90% 30.01 0.0
06 04:55 NE 5 10.00 Fair CLR 59 55.8 89% 30.01 0.0
06 04:35 NE 3 10.00 Fair CLR 59.5 55.9 88% 30 0.0
06 04:15 N 5 10.00 Fair CLR 59.9 56.3 88% 30 0.0
06 03:55 N 5 10.00 Fair CLR 59.9 56.1 87% 30 0.0
06 03:35 NE 5 10.00 Partly Cloudy SCT040 60.6 56.3 86% 30 0.0
06 03:15 N 5 10.00 Mostly Cloudy BKN040 61 56.5 85% 30 0.0
06 02:55 N 5 10.00 Mostly Cloudy BKN040 61.2 56.3 84% 29.99 0.0
06 02:35 Calm 10.00 Fair CLR 61.7 56.1 82% 30 0.0
06 02:15 N 5 10.00 Fair CLR 62.2 56.1 81% 29.99 0.0
06 01:55 NE 3 10.00 Fair CLR 62.4 56.1 80% 29.99 0.0
06 01:35 NE 3 10.00 Fair CLR 62.8 56.3 80% 29.99 0.0
06 01:15 NE 3 10.00 Fair CLR 63 56.3 79% 29.99 0.0
06 00:55 NE 5 10.00 Fair CLR 63.3 56.3 78% 29.99 0.0
06 00:35 Calm 10.00 Fair CLR 63.9 56.3 77% 30 0.0
06 00:15 Calm 10.00 Fair CLR 64.4 56.3 75% 29.99 0.0
05 23:55 N 3 10.00 Fair CLR 64.8 56.5 75% 30 0.0
05 23:35 NE 3 10.00 Fair CLR 65.3 56.5 73% 30 0.0
05 23:15 Calm 10.00 Fair CLR 66.2 56.5 71% 30 0.0
05 22:55 NE 3 10.00 Fair CLR 66.9 56.8 70% 29.99 0.0
05 22:35 NE 3 10.00 Fair CLR 67.3 57.2 70% 29.99 0.0
05 22:15 NE 3 10.00 Fair CLR 68 57.2 69% 29.99 0.0
05 21:55 NE 5 10.00 Fair CLR 68.9 57.4 67% 29.98 0.0
05 21:35 NE 6 10.00 Fair CLR 69.4 58.1 67% 29.98 0.0
05 21:15 N 6 10.00 Fair CLR 70.2 59 68% 29.98 0.0
05 20:55 NE 7 10.00 Fair CLR 71.1 60.1 68% 29.97 0.0
05 20:35 N 7 10.00 Fair CLR 72.5 60.8 67% 29.96 0.0
05 20:15 N 5 10.00 Fair CLR 73.4 61.2 66% 29.96 0.0
05 19:55 N 5 10.00 Fair CLR 74.3 61.2 64% 29.95 0.0
05 19:35 N 5 10.00 Fair CLR 75.4 61.3 62% 78 29.95 0.0
05 19:15 N 7 10.00 Fair CLR 77 61 58% 79 29.95 0.0
05 18:55 N 7 10.00 Fair CLR 77.4 61.3 58% 79 29.94 0.0
05 18:35 N 5 10.00 Fair CLR 79 64.2 61% 81 29.94 0.0
05 18:15 N 5 10.00 Fair CLR 79.7 63.7 58% 81 29.94 0.0
05 17:55 N 5 10.00 Fair CLR 79.7 63.7 58% 81 29.93 0.0
05 17:35 N 5 10.00 Partly Cloudy SCT095 77.9 64.6 64% 80 29.93 0.0
05 17:15 N 9 10.00 Mostly Cloudy SCT028 SCT047 BKN085 80.6 66 61% 83 29.92 0.0
05 16:55 N 7 10.00 Mostly Cloudy SCT028 SCT047 BKN095 79.9 65.8 62% 82 29.93 0.0
05 16:35 N 3 10.00 Mostly Cloudy SCT080 BKN095 81.1 66.4 61% 83 29.93 0.0
05 16:15 NE 5 10.00 Overcast OVC070 79.5 66.2 64% 82 29.93 0.0
05 15:55 NE 5 10.00 Overcast SCT028 BKN070 OVC080 79.3 66.6 65% 81 29.93 0.0
05 13:55 N 7 10.00 Overcast BKN021 BKN031 OVC065 80.6 67.5 64% 83 29.96 0.0
05 13:35 N 3 10.00 Mostly Cloudy SCT018 BKN024 BKN033 78.1 67.1 69% 80 29.96 0.0
05 13:15 NE 9 10.00 Mostly Cloudy SCT016 SCT028 BKN120 79.3 68.7 70% 82 29.96 0.0
05 12:55 NE 6 10.00 Light Rain BKN016 OVC029 77 68.7 76% 79 29.97 0.0
05 12:15 Calm 10.00 Overcast SCT029 SCT044 OVC050 76.6 67.3 73% 78 29.99 0.0
05 11:55 N 3 10.00 Overcast SCT023 BKN044 OVC055 76.3 67.5 74% 78 29.99 0.0
05 11:35 Calm 10.00 Overcast SCT013 BKN023 OVC046 77.4 68.2 73% 79 29.99 0.0
05 11:15 N 5 10.00 Mostly Cloudy BKN013 BKN055 77.2 68.4 74% 79 29.98 0.0
05 10:55 Calm 10.00 Mostly Cloudy BKN011 BKN055 76.1 68 76% 77 29.98 0.0
05 10:35 Calm 10.00 Partly Cloudy SCT011 SCT090 75.9 68.4 78% 77 29.96 0.0
05 10:15 Calm 10.00 Mostly Cloudy SCT007 BKN090 74.5 67.5 79% 29.96 0.0
05 09:55 Calm 10.00 Overcast SCT007 BKN046 OVC100 73.9 67.8 81% 29.96 0.0
05 09:35 Calm 10.00 Mostly Cloudy SCT005 BKN044 BKN050 72 68.5 89% 29.98 0.0
05 09:15 Calm 10.00 Mostly Cloudy BKN050 70.9 68.7 93% 29.98 0.0
05 08:55 Calm 10.00 Overcast OVC050 70.2 68.9 96% 29.98 0.0
05 08:35 Calm 10.00 Mostly Cloudy BKN050 69.8 68.9 97% 29.98 0.0
05 08:15 Calm 7.00 Overcast OVC048 69.3 68.5 98% 29.98 0.0
05 07:55 Calm 10.00 Overcast OVC048 69.1 68.4 98% 29.98 0.0
05 07:35 Calm 10.00 Mostly Cloudy BKN015 BKN048 68.5 68 98% 29.96 0.0
05 07:15 Calm 10.00 Overcast OVC015 68.5 68 98% 29.97 0.0
05 06:55 Calm 7.00 Overcast OVC013 68.9 68 97% 29.97 0.0
05 06:35 Calm 7.00 Overcast SCT002 OVC013 68.9 68.2 98% 29.96 0.0
05 06:15 Calm 5.00 Fog/Mist OVC002 69.1 68.4 98% 29.96 0.0
05 05:55 NE 5 4.00 Fog/Mist OVC002 69.4 68.9 98% 29.95 0.0
05 05:35 NE 5 1.50 Fog/Mist OVC002 69.6 68.9 98% 29.94 0.0
05 05:15 Calm 1.00 Fog/Mist OVC002 69.8 69.1 98% 29.95 0.0
05 04:55 Calm 0.25 Fog OVC002 69.8 68.9 97% 29.93 0.0
05 04:35 Calm 0.25 Fog OVC002 70 69.1 97% 29.94 0.0
05 04:15 Calm 0.50 Fog BKN002 OVC013 70.3 69.4 97% 29.94 0.0
05 03:55 Calm 0.50 Fog OVC002 70.7 69.4 96% 29.94 0.0
05 03:35 Calm 5.00 Fog/Mist CLR 70.7 69.8 97% 29.94 0.0
05 03:15 Calm 7.00 Fair CLR 71.2 70 96% 29.95 0.0
05 02:55 Calm 7.00 Fair CLR 71.2 70.2 96% 29.96 0.0
05 02:35 Calm 7.00 Partly Cloudy SCT038 71.2 70.2 96% 29.98 0.0
05 02:15 Calm 5.00 Fog/Mist SCT003 BKN038 70.7 69.6 96% 29.98 0.0
05 01:55 Calm 5.00 Fog/Mist OVC038 71.8 70.3 95% 29.98 0.0
05 01:35 Calm 7.00 Overcast OVC038 71.8 70.5 96% 29.99 0.0
05 01:15 Calm 7.00 Mostly Cloudy BKN038 71.8 70.2 95% 29.99 0.0
05 00:55 Calm 5.00 Fog/Mist SCT038 SCT065 71.6 69.4 93% 29.99 0.0
05 00:35 Calm 5.00 Fog/Mist CLR 71.8 69.3 92% 29.99 0.0
05 00:15 Calm 10.00 Fair CLR 72 69.3 91% 29.98 0.0
04 23:55 Calm 10.00 Fair CLR 72.5 69.4 90% 29.98 0.0
04 23:35 NW 3 10.00 Fair CLR 72.5 69.3 90% 29.98 0.0
04 23:15 NW 3 10.00 Partly Cloudy SCT085 72.9 69.3 89% 29.99 0.0
04 22:55 NW 3 10.00 Mostly Cloudy BKN085 73.2 69.3 87% 29.99 0.0
04 22:35 Calm 10.00 Mostly Cloudy BKN085 73.4 69.4 87% 29.99 0.0
04 21:55 Calm 10.00 Fair CLR 73.8 69.4 86% 29.99 0.0
04 21:35 Calm 10.00 Fair CLR 74.1 69.1 84% 29.99 0.0
04 21:15 Calm 10.00 Fair CLR 74.8 69.1 82% 29.99 0.0
04 20:55 Calm 10.00 Fair CLR 75.2 69.1 81% 76 29.98 0.0
04 20:35 Calm 10.00 Fair CLR 75.6 69.4 81% 76 29.98 0.0
04 20:15 Calm 10.00 Partly Cloudy SCT075 76.1 69.4 80% 77 29.98 0.0
04 19:55 Calm 10.00 Partly Cloudy SCT075 77 69.3 77% 79 29.99 0.0
04 19:35 Calm 10.00 Partly Cloudy SCT075 77.4 69.1 76% 79 29.99 0.0
04 19:15 NW 3 10.00 Mostly Cloudy BKN075 77.9 69.3 75% 80 29.99 0.0
04 18:55 W 3 10.00 Partly Cloudy SCT075 78.3 68.9 73% 81 29.98 0.0
04 18:47 W 5 10.00 Fair CLR 78.8 69.8 74% 81 29.98 0.0
04 18:35 W 3 10.00 Fair CLR 79 68 69% 81 29.97 0.0
04 18:15 W 5 10.00 Partly Cloudy SCT028 79.7 68.9 70% 82 29.98 0.0
04 17:47 W 5 10.00 Mostly Cloudy BKN026 BKN032 80.6 68 66% 83 29.96 0.0
04 17:35 Calm 10.00 Mostly Cloudy SCT026 BKN030 81 68.4 66% 84 29.96 0.0
04 17:15 Calm 10.00 Mostly Cloudy BKN026 80.8 67.6 64% 83 29.96 0.0
04 16:55 Calm 10.00 Partly Cloudy SCT024 80.6 68.5 67% 83 29.96 0.0
04 16:47 Calm 10.00 Fair CLR 80.6 68 66% 83 29.96 0.0
04 16:35 Calm 10.00 Fair CLR 81.3 68 64% 84 29.98 0.0
04 16:15 NW 3 10.00 Fair CLR 80.8 68.2 66% 84 29.99 0.0
04 15:55 NW 6 10.00 Fair CLR 80.8 67.6 64% 83 29.99 0.0
04 15:47 N 5 10.00 Partly Cloudy SCT023 SCT030 80.6 68 66% 83 29.98 0.0
04 15:35 Calm 10.00 Partly Cloudy SCT023 SCT030 81.3 67.8 64% 84 29.98 0.0
04 15:15 W 8 10.00 Partly Cloudy SCT023 SCT028 83.3 69.6 63% 87 30 0.0
04 14:55 N 7 10.00 Mostly Cloudy SCT019 BKN026 BKN030 80.6 70 70% 84 30.03 0.0
04 14:47 N 8 10.00 Mostly Cloudy SCT016 BKN022 BKN028 82.4 69.8 66% 86 30.03 0.0
04 14:35 N 7 10.00 Mostly Cloudy SCT015 BKN022 BKN110 81.7 70.7 69% 86 30.03 0.0
04 14:15 N 6 10.00 Mostly Cloudy SCT014 BKN120 81.7 71.1 70% 86 30.03 0.0
04 13:55 N 7 10.00 Partly Cloudy SCT013 SCT120 79.9 70.5 73% 83 30.04 0.0
04 13:47 N 5 10.00 Partly Cloudy SCT013 80.6 71.6 74% 85 30.03 0.0
04 13:35 NW 5 10.00 Partly Cloudy SCT013 81.9 71.4 71% 86 30.04 0.0
04 13:15 Calm 10.00 Partly Cloudy SCT009 78.8 71.6 79% 82 30.03 0.0
04 12:55 Calm 10.00 Mostly Cloudy BKN009 76.5 69.8 80% 78 30.03 0.0
04 12:47 Calm 10.00 Mostly Cloudy BKN009 75.2 69.8 83% 75 30.04 0.0
04 12:35 Calm 10.00 Partly Cloudy SCT009 SCT013 75.6 70.3 84% 76 30.04 0.0
04 12:15 Calm 10.00 Thunderstorm Light Rain in Vicinity BKN013 74.5 70.2 86% 30.05 0.0
04 11:55 NW 3 10.00 Light Rain SCT008 OVC015 74.3 69.8 86% 30.07 0.0
04 11:35 Calm 10.00 Thunderstorm in Vicinity SCT008 BKN015 BKN026 74.3 70 86% 30.07 0.0
04 11:15 N 5 10.00 Thunderstorm OVC008 74.7 70 85% 30.08 0.0
04 10:55 Calm 10.00 Thunderstorm in Vicinity BKN008 OVC012 74.8 69.8 84% 30.06 0.0
04 10:35 Calm 10.00 Overcast OVC006 74.1 72.3 94% 30.05 0.0
04 10:15 Calm 10.00 Thunderstorm in Vicinity OVC004 72 71.1 97% 30.04 0.0
04 09:55 Calm 3.00 Fog/Mist OVC002 71.8 70.9 97% 30.03 0.0
04 09:35 Calm 0.50 Fog OVC002 70.7 70 98% 30.04 0.0
04 09:15 S 3 1.00 Fog/Mist OVC002 70.9 70.2 98% 30.04 0.0
04 08:55 Calm 0.25 Fog OVC002 70 69.3 98% 30.04 0.0
04 08:35 Calm 0.25 Fog OVC002 69.3 68.5 98% 30.04 0.0
04 08:15 Calm 0.25 Fog OVC002 69.1 68.4 98% 30.05 0.0
04 07:55 Calm 0.15 Fog OVC002 68.9 68.2 98% 30.05 0.0
04 07:35 Calm 0.15 Fog OVC002 68.9 68 97% 30.04 0.0
04 07:15 Calm 2.50 Fog/Mist BKN002 68.9 68 97% 30.03 0.0
04 06:55 Calm 7.00 Fair CLR 68.9 68 97% 30.02 0.0
04 06:35 Calm 10.00 Partly Cloudy SCT110 68.9 68 97% 30.03 0.0
04 06:15 Calm 7.00 Partly Cloudy SCT110 69.1 68 96% 30.03 0.0
04 05:55 Calm 10.00 Fair CLR 68.9 67.8 96% 30.02 0.0
04 05:15 Calm 7.00 Fair CLR 69.1 67.6 95% 30.02 0.0
04 04:55 Calm 7.00 Partly Cloudy SCT065 69.1 66.7 92% 30.02 0.0
04 04:35 Calm 10.00 Partly Cloudy SCT065 69.8 67.5 92% 30.02 0.0
04 04:15 Calm 10.00 Fair CLR 70 67.6 92% 30.02 0.0
04 03:55 Calm 10.00 Fair CLR 69.8 67.3 92% 30.02 0.0
04 03:35 Calm 10.00 Fair CLR 69.8 67.1 91% 30.01 0.0
04 03:15 Calm 10.00 Thunderstorm in Vicinity SCT070 70 67.1 91% 30.01 0.0
04 02:55 W 5 10.00 Partly Cloudy SCT070 70.3 67.5 91% 30.02 0.0
04 02:35 W 5 10.00 Thunderstorm in Vicinity SCT070 70.2 67.3 91% 30.01 0.0
04 02:15 SW 3 10.00 Thunderstorm in Vicinity SCT070 70 67.5 92% 30.02 0.0
04 01:55 SW 7 10.00 Partly Cloudy SCT090 70.2 67.8 92% 30.02 0.0
04 01:35 SW 8 10.00 Thunderstorm Light Rain in Vicinity SCT065 BKN090 BKN120 70.2 68 93% 30.03 0.0
04 01:15 SW 12 G 17 10.00 Thunderstorm Light Rain SCT026 SCT038 OVC065 70.3 68.5 94% 30.03 0.0
04 00:55 W 5 2.50 Thunderstorm Heavy Rain SCT006 BKN047 OVC075 70.7 68.9 94% 30.03 0.0
04 00:35 Calm 10.00 Overcast OVC080 70.5 68.9 95% 30.01 0.0
04 00:15 SW 6 10.00 Mostly Cloudy BKN080 BKN110 70.7 69.3 95% 30.01 0.0
03 23:55 SW 6 10.00 Mostly Cloudy BKN110 70.3 69.3 96% 30.01 0.0
03 23:35 SW 6 10.00 Mostly Cloudy SCT002 BKN110 70.7 69.6 96% 30.02 0.0
03 23:15 S 7 10.00 Overcast BKN002 OVC110 70.7 69.8 97% 30.02 0.0
03 22:55 SW 9 10.00 Overcast BKN002 OVC120 70.9 69.8 96% 30.02 0.0
03 22:35 S 7 7.00 Overcast BKN002 OVC120 70.9 69.8 96% 30.02 0.0
03 22:15 S 7 5.00 Fog/Mist OVC002 70.9 69.8 96% 30.02 0.0
03 21:55 S 5 7.00 Mostly Cloudy BKN002 70.9 69.4 95% 29.98 0.0
03 21:35 S 5 10.00 Thunderstorm Light Rain in Vicinity BKN002 71.1 69.4 95% 29.98 0.0
03 21:15 S 5 10.00 Overcast OVC002 71.4 69.6 94% 29.99 0.0
03 20:55 Calm 5.00 Light Rain BKN002 BKN013 OVC060 71.6 69.1 92% 29.99 0.0
03 20:35 NE 6 5.00 Thunderstorm Rain BKN006 BKN025 OVC085 71.6 68.9 91% 30.03 0.0
03 20:15 N 3 4.00 Thunderstorm Rain in Vicinity BKN004 BKN013 OVC031 71.6 68.9 91% 30.05 0.0
03 19:55 N 7 4.00 Thunderstorm Heavy Rain SCT006 SCT037 BKN060 72.5 70 92% 30.06 0.0
03 19:35 S 7 10.00 Light Rain SCT070 SCT100 72.5 69.8 91% 30.03 0.0
03 19:15 S 3 7.00 Light Rain SCT046 SCT075 BKN085 72.3 69.6 91% 30.04 0.0
03 18:55 Calm 7.00 Thunderstorm Light Rain in Vicinity SCT037 BKN050 OVC080 72.5 69.8 91% 30.04 0.0
03 18:47 N 3 3.00 Thunderstorm Light Rain in Vicinity SCT044 BKN060 OVC090 71.6 69.8 94% 30.03 0.0
Date Time (edt) Wind (mph) Vis. (mi.) Weather Sky Cond. Air Dwpt Max. Min. Relative Humidity Wind Chill (°F) Heat Index (°F) altimeter (in) sea level (mb) 1 hr 3 hr 6 hr
6 hour
Temperature (ºF) Pressure Precipitation (in)